Time;durP1;ratioP1;P1;durP2;ratioP2;P2;SDS_P1;SDS_P2;PMS_P1;PMS_P2;Temp;Humidity;BMP_temperature;BMP_pressure;BME280_temperature;BME280_humidity;BME280_pressure;Samples;Min_cycle;Max_cycle;Signal;HPM_P1;HPM_P2
2021/12/31 00:02:00;;;;;;;14.75;5.35;;;;;;;10.99;100.00;99866.94;4951338;28;20043;-60
2021/12/31 00:04:25;;;;;;;14.65;4.53;;;;;;;11.01;100.00;99870.22;4948694;28;20131;-60
2021/12/31 00:06:50;;;;;;;14.75;4.60;;;;;;;11.02;100.00;99866.47;4949703;28;20679;-61
2021/12/31 00:09:16;;;;;;;12.63;4.88;;;;;;;11.07;100.00;99856.94;4953354;28;20030;-61
2021/12/31 00:11:41;;;;;;;13.98;4.70;;;;;;;11.04;100.00;99860.09;4955597;28;20038;-61
2021/12/31 00:14:07;;;;;;;15.43;4.68;;;;;;;11.00;100.00;99851.66;4955084;28;20724;-60
2021/12/31 00:16:33;;;;;;;19.02;4.57;;;;;;;10.96;100.00;99856.69;4949525;28;20047;-61
2021/12/31 00:18:58;;;;;;;14.75;4.95;;;;;;;10.98;100.00;99854.59;4957331;28;20066;-61
2021/12/31 00:21:24;;;;;;;18.98;4.40;;;;;;;11.01;100.00;99859.50;4951285;28;20058;-61
2021/12/31 00:23:49;;;;;;;24.77;5.57;;;;;;;10.97;100.00;99852.94;4953324;28;20162;-61
2021/12/31 00:26:14;;;;;;;8.63;3.63;;;;;;;10.99;100.00;99845.50;4948368;28;20046;-60
2021/12/31 00:28:40;;;;;;;13.52;4.32;;;;;;;11.05;100.00;99848.28;4954827;28;20429;-61
2021/12/31 00:31:05;;;;;;;13.77;4.70;;;;;;;11.07;100.00;99843.53;4952091;28;20054;-60
2021/12/31 00:33:31;;;;;;;13.68;6.00;;;;;;;11.07;100.00;99841.66;4956069;28;20520;-60
2021/12/31 00:35:56;;;;;;;15.80;4.40;;;;;;;11.09;100.00;99849.47;4951834;28;20095;-61
2021/12/31 00:38:21;;;;;;;16.50;4.65;;;;;;;11.08;100.00;99847.81;4955941;28;20113;-60
2021/12/31 00:40:47;;;;;;;15.35;4.45;;;;;;;11.05;100.00;99846.44;4954890;28;20070;-60
2021/12/31 00:43:12;;;;;;;18.98;4.93;;;;;;;11.05;100.00;99842.94;4949778;28;20038;-61
2021/12/31 00:45:40;;;;;;;17.52;4.75;;;;;;;11.02;100.00;99842.34;4956888;28;20039;-60
2021/12/31 00:48:06;;;;;;;11.77;4.20;;;;;;;11.09;100.00;99846.81;4959701;28;20034;-61
2021/12/31 00:50:32;;;;;;;16.70;4.82;;;;;;;11.04;100.00;99844.81;4958464;28;20089;-61
2021/12/31 00:52:57;;;;;;;16.10;5.03;;;;;;;11.05;100.00;99853.66;4958121;28;20035;-61
2021/12/31 00:55:23;;;;;;;12.90;4.20;;;;;;;11.06;100.00;99852.59;4962067;28;20054;-60
2021/12/31 00:57:49;;;;;;;14.73;4.05;;;;;;;11.03;100.00;99845.84;4950826;28;20067;-59
2021/12/31 01:00:15;;;;;;;14.68;4.47;;;;;;;10.98;100.00;99843.88;4959130;28;20160;-60
2021/12/31 01:02:43;;;;;;;13.35;4.13;;;;;;;11.01;100.00;99842.59;4956934;28;20026;-60
2021/12/31 01:05:09;;;;;;;18.67;4.25;;;;;;;11.07;100.00;99844.34;4961176;28;20065;-59
2021/12/31 01:07:34;;;;;;;14.95;4.55;;;;;;;11.04;100.00;99849.34;4952454;28;20489;-59
2021/12/31 01:10:01;;;;;;;19.73;4.57;;;;;;;10.97;100.00;99841.41;4953898;28;20078;-59
2021/12/31 01:12:26;;;;;;;14.15;4.28;;;;;;;11.07;100.00;99846.22;4955445;28;20138;-60
2021/12/31 01:17:23;;;;;;;11.70;3.83;;;;;;;10.99;100.00;99850.03;4958249;28;20701;-59
2021/12/31 01:19:49;;;;;;;11.57;4.32;;;;;;;10.87;100.00;99858.03;4955061;28;20050;-59
2021/12/31 01:22:33;;;;;;;14.55;4.20;;;;;;;10.94;100.00;99858.78;4954690;28;20046;-59
2021/12/31 01:24:59;;;;;;;9.45;3.95;;;;;;;10.90;100.00;99857.59;4952092;28;20478;-60
2021/12/31 01:27:24;;;;;;;11.95;4.28;;;;;;;10.97;100.00;99855.63;4952460;28;20074;-60
2021/12/31 01:29:50;;;;;;;14.30;4.18;;;;;;;10.90;100.00;99852.22;4959849;28;20490;-59
2021/12/31 01:32:15;;;;;;;12.30;3.88;;;;;;;10.91;100.00;99847.69;4957864;28;20039;-59
2021/12/31 01:34:40;;;;;;;18.25;4.28;;;;;;;10.97;100.00;99852.94;4949589;28;20058;-61
2021/12/31 01:37:06;;;;;;;8.90;3.85;;;;;;;10.91;100.00;99848.50;4947490;28;20047;-61
2021/12/31 01:39:32;;;;;;;11.18;4.10;;;;;;;10.97;100.00;99855.63;4955039;28;20086;-61
2021/12/31 01:41:58;;;;;;;10.13;3.95;;;;;;;10.93;100.00;99851.78;4954516;28;20090;-61
2021/12/31 01:44:28;;;;;;;13.40;4.07;;;;;;;10.89;100.00;99855.16;4954732;28;20520;-61
2021/12/31 01:46:58;;;;;;;15.60;4.00;;;;;;;10.90;100.00;99852.22;4951157;28;20509;-62
2021/12/31 01:49:27;;;;;;;10.40;3.78;;;;;;;10.98;100.00;99851.91;4956649;28;20438;-61
2021/12/31 01:51:53;;;;;;;12.48;3.67;;;;;;;10.92;100.00;99850.13;4953856;28;20066;-61
2021/12/31 01:54:18;;;;;;;13.55;3.65;;;;;;;10.90;100.00;99854.91;4950953;28;20038;-61
2021/12/31 01:56:44;;;;;;;19.52;3.88;;;;;;;10.87;100.00;99855.38;4950938;28;20407;-61
2021/12/31 01:59:09;;;;;;;12.43;3.45;;;;;;;10.99;100.00;99852.72;4948860;28;20085;-61
2021/12/31 02:01:35;;;;;;;13.07;3.50;;;;;;;10.92;100.00;99854.69;4934117;28;20387;-61
2021/12/31 02:04:00;;;;;;;11.48;3.83;;;;;;;10.84;100.00;99847.78;4950644;28;20031;-61
2021/12/31 02:06:26;;;;;;;11.38;3.75;;;;;;;10.88;100.00;99854.31;4954766;28;20090;-60
2021/12/31 02:08:52;;;;;;;8.73;3.72;;;;;;;10.88;100.00;99854.31;4950939;28;20067;-60
2021/12/31 02:11:17;;;;;;;10.90;3.53;;;;;;;10.87;100.00;99863.41;4959689;28;20043;-60
2021/12/31 02:13:43;;;;;;;12.35;4.22;;;;;;;10.85;100.00;99862.81;4949546;28;20337;-60
2021/12/31 02:16:09;;;;;;;14.80;3.72;;;;;;;10.86;100.00;99861.78;4935268;29;20043;-61
2021/12/31 02:18:34;;;;;;;11.75;4.13;;;;;;;10.87;100.00;99868.78;4951367;28;20035;-60
2021/12/31 02:21:02;;;;;;;12.82;3.88;;;;;;;10.83;100.00;99867.59;4948287;28;20055;-60
2021/12/31 02:23:37;;;;;;;12.05;3.97;;;;;;;10.86;100.00;99867.16;4947871;28;20037;-60
2021/12/31 02:26:03;;;;;;;10.80;3.65;;;;;;;10.82;100.00;99868.66;4952146;28;20047;-60
2021/12/31 02:28:28;;;;;;;10.85;3.92;;;;;;;10.78;100.00;99864.78;4959768;28;20019;-60
2021/12/31 02:31:00;;;;;;;10.25;3.47;;;;;;;10.80;100.00;99860.81;4954778;28;20085;-60
2021/12/31 02:33:25;;;;;;;16.55;4.45;;;;;;;10.82;100.00;99860.59;4952845;28;20042;-60
2021/12/31 02:35:51;;;;;;;16.27;4.18;;;;;;;10.85;100.00;99857.44;4957215;28;20038;-60
2021/12/31 02:38:16;;;;;;;16.67;4.03;;;;;;;10.83;100.00;99856.03;4951434;28;20027;-60
2021/12/31 02:40:42;;;;;;;11.30;4.07;;;;;;;10.80;100.00;99863.50;4951819;28;20046;-60
2021/12/31 02:43:07;;;;;;;18.23;3.90;;;;;;;10.87;100.00;99862.59;4949278;28;20031;-60
2021/12/31 02:45:36;;;;;;;13.43;3.60;;;;;;;10.82;100.00;99859.78;4950483;28;20748;-60
2021/12/31 02:48:03;;;;;;;8.43;3.65;;;;;;;10.80;100.00;99857.31;4959968;28;20116;-60
2021/12/31 02:50:35;;;;;;;10.65;3.67;;;;;;;10.80;100.00;99851.97;4951400;28;20051;-60
2021/12/31 02:53:05;;;;;;;11.40;4.05;;;;;;;10.78;100.00;99849.53;4944367;28;20545;-60
2021/12/31 02:55:30;;;;;;;;;;;;;;;10.72;100.00;99847.75;4957109;28;20220;-60
2021/12/31 02:57:57;;;;;;;7.38;3.33;;;;;;;10.72;100.00;99845.06;4954754;28;20377;-60
2021/12/31 03:00:22;;;;;;;11.43;3.63;;;;;;;10.71;100.00;99846.13;4949866;28;20043;-60
2021/12/31 03:02:48;;;;;;;14.15;3.63;;;;;;;10.76;100.00;99845.44;4957186;28;20454;-60
2021/12/31 03:05:13;;;;;;;13.02;3.90;;;;;;;10.78;100.00;99840.63;4944808;28;20070;-60
2021/12/31 03:07:39;;;;;;;11.70;3.60;;;;;;;10.75;100.00;99835.75;4954419;28;20469;-60
2021/12/31 03:10:04;;;;;;;12.05;3.97;;;;;;;10.77;100.00;99839.00;4938233;28;20027;-60
2021/12/31 03:12:30;;;;;;;8.32;3.70;;;;;;;10.73;100.00;99837.81;4951297;28;20023;-60
2021/12/31 03:14:55;;;;;;;10.63;3.70;;;;;;;10.78;100.00;99827.22;4950077;28;20030;-60
2021/12/31 03:17:21;;;;;;;17.05;4.35;;;;;;;10.73;100.00;99835.16;4958646;28;20383;-60
2021/12/31 03:19:46;;;;;;;13.80;3.55;;;;;;;10.66;100.00;99824.53;4948597;28;20054;-60
2021/12/31 03:22:12;;;;;;;9.43;3.20;;;;;;;10.70;100.00;99833.75;4945303;28;20093;-60
2021/12/31 03:24:37;;;;;;;9.85;3.38;;;;;;;10.66;100.00;99827.22;4954438;28;20027;-60
2021/12/31 03:27:03;;;;;;;10.02;3.50;;;;;;;10.68;100.00;99821.59;4951118;28;20434;-60
2021/12/31 03:29:28;;;;;;;9.27;3.55;;;;;;;10.71;100.00;99823.84;4952346;28;20837;-60
2021/12/31 03:31:54;;;;;;;9.20;3.50;;;;;;;10.68;100.00;99822.41;4955270;28;20045;-60
2021/12/31 03:34:19;;;;;;;8.35;3.47;;;;;;;10.73;100.00;99819.06;4957038;28;20276;-60
2021/12/31 03:36:45;;;;;;;12.50;3.30;;;;;;;10.75;100.00;99822.34;4948576;28;20039;-60
2021/12/31 03:39:10;;;;;;;8.20;3.50;;;;;;;10.74;100.00;99826.06;4950977;28;20413;-60
2021/12/31 03:41:36;;;;;;;9.23;3.83;;;;;;;10.76;100.00;99813.25;4955001;28;20054;-60
2021/12/31 03:44:02;;;;;;;8.23;3.10;;;;;;;10.68;100.00;99811.69;4950419;28;20027;-60
2021/12/31 03:46:27;;;;;;;14.23;3.83;;;;;;;10.71;100.00;99810.44;4954531;28;20636;-60
2021/12/31 03:48:52;;;;;;;8.60;3.70;;;;;;;10.71;100.00;99819.31;4950089;28;20026;-60
2021/12/31 03:51:18;;;;;;;9.48;3.80;;;;;;;10.73;100.00;99819.06;4946061;28;20035;-61
2021/12/31 03:53:43;;;;;;;14.98;3.50;;;;;;;10.70;100.00;99816.84;4947163;28;20481;-60
2021/12/31 03:56:09;;;;;;;14.35;4.10;;;;;;;10.64;100.00;99820.44;4949518;28;20043;-60
2021/12/31 03:58:34;;;;;;;10.05;3.92;;;;;;;10.73;100.00;99813.69;4956578;28;20039;-60
2021/12/31 04:01:00;;;;;;;14.30;4.35;;;;;;;10.74;100.00;99810.00;4950795;28;20923;-60
2021/12/31 04:03:25;;;;;;;7.93;3.15;;;;;;;10.75;100.00;99806.25;4950421;28;20650;-60
2021/12/31 04:05:51;;;;;;;9.38;3.55;;;;;;;10.71;99.85;99805.91;4953087;28;20050;-60
2021/12/31 04:08:16;;;;;;;13.60;3.92;;;;;;;10.66;100.00;99803.09;4949892;28;20035;-60
2021/12/31 04:10:43;;;;;;;9.82;3.90;;;;;;;10.58;100.00;99801.56;4957995;28;20035;-60
2021/12/31 04:13:08;;;;;;;11.65;4.07;;;;;;;10.60;100.00;99792.47;4950363;28;20031;-61
2021/12/31 04:15:33;;;;;;;11.05;3.50;;;;;;;10.55;100.00;99791.28;4950308;28;20332;-60
2021/12/31 04:17:59;;;;;;;15.68;3.88;;;;;;;10.54;100.00;99789.66;4950019;28;20105;-60
2021/12/31 04:20:34;;;;;;;7.05;3.70;;;;;;;10.46;100.00;99789.13;4951241;28;20158;-60
2021/12/31 04:23:02;;;;;;;15.75;4.05;;;;;;;10.33;100.00;99787.47;4958213;28;20462;-61
2021/12/31 04:25:27;;;;;;;10.32;4.47;;;;;;;10.24;100.00;99792.31;4954520;28;20157;-61
2021/12/31 04:27:53;;;;;;;12.73;3.90;;;;;;;10.18;100.00;99805.78;4951045;28;20500;-61
2021/12/31 04:30:18;;;;;;;9.82;3.75;;;;;;;10.21;100.00;99811.50;4955088;28;20062;-61
2021/12/31 04:32:44;;;;;;;12.80;4.22;;;;;;;10.18;100.00;99819.16;4956904;28;20031;-61
2021/12/31 04:35:11;;;;;;;17.30;4.03;;;;;;;10.15;100.00;99809.72;4956824;28;20038;-61
2021/12/31 04:37:38;;;;;;;12.35;4.07;;;;;;;10.17;100.00;99814.88;4955675;28;20042;-61
2021/12/31 04:40:04;;;;;;;16.50;4.40;;;;;;;10.19;100.00;99821.63;4959602;28;20031;-61
2021/12/31 04:42:30;;;;;;;12.90;4.70;;;;;;;10.17;100.00;99817.53;4956127;28;20042;-60
2021/12/31 04:44:57;;;;;;;13.93;4.38;;;;;;;10.11;100.00;99813.91;4953180;28;20054;-59
2021/12/31 04:47:22;;;;;;;11.82;4.38;;;;;;;10.08;100.00;99804.47;4954424;28;20047;-60
2021/12/31 04:49:48;;;;;;;12.68;4.70;;;;;;;10.02;100.00;99808.03;4950092;28;20031;-60
2021/12/31 04:52:13;;;;;;;12.63;4.63;;;;;;;10.01;100.00;99806.41;4950931;28;20043;-60
2021/12/31 04:54:38;;;;;;;7.80;3.95;;;;;;;10.00;100.00;99812.78;4957854;28;20693;-60
2021/12/31 04:57:04;;;;;;;8.15;3.92;;;;;;;9.96;100.00;99808.09;4956886;28;20039;-59
2021/12/31 04:59:29;;;;;;;10.45;4.30;;;;;;;9.81;100.00;99814.66;4955875;28;20023;-59
2021/12/31 05:01:55;;;;;;;13.50;4.55;;;;;;;9.74;100.00;99815.78;4956653;28;20113;-59
2021/12/31 05:04:20;;;;;;;15.05;5.38;;;;;;;9.68;100.00;99823.66;4950509;28;20102;-59
2021/12/31 05:06:49;;;;;;;17.40;6.18;;;;;;;9.61;100.00;99814.88;4945816;28;20035;-59
2021/12/31 05:09:14;;;;;;;14.07;4.75;;;;;;;9.64;100.00;99818.97;4951762;28;20026;-60
2021/12/31 05:11:39;;;;;;;13.65;5.03;;;;;;;9.60;100.00;99821.25;4958103;28;20039;-59
2021/12/31 05:14:05;;;;;;;9.85;4.68;;;;;;;9.59;100.00;99822.31;4958733;28;20473;-59
2021/12/31 05:16:31;;;;;;;13.30;4.88;;;;;;;9.63;100.00;99820.00;4960185;28;20530;-59
2021/12/31 05:18:56;;;;;;;10.70;4.57;;;;;;;9.61;100.00;99812.19;4951997;28;20020;-60
2021/12/31 05:21:21;;;;;;;12.98;5.30;;;;;;;9.61;100.00;99806.84;4957357;28;20513;-60
2021/12/31 05:23:47;;;;;;;16.20;6.25;;;;;;;9.52;100.00;99808.16;4950394;28;20391;-59
2021/12/31 05:26:12;;;;;;;18.08;6.03;;;;;;;9.48;100.00;99804.28;4949902;28;20046;-59
2021/12/31 05:28:38;;;;;;;13.73;4.97;;;;;;;9.45;100.00;99810.09;4961157;28;20478;-59
2021/12/31 05:31:03;;;;;;;12.32;5.50;;;;;;;9.36;100.00;99803.38;4954079;28;20498;-59
2021/12/31 05:33:29;;;;;;;16.02;5.60;;;;;;;9.37;100.00;99799.69;4945859;28;20664;-59
2021/12/31 05:35:56;;;;;;;12.88;4.82;;;;;;;9.37;100.00;99805.03;4953982;28;20047;-59
2021/12/31 05:38:22;;;;;;;11.77;5.07;;;;;;;9.42;100.00;99799.84;4946889;28;20545;-61
2021/12/31 05:40:47;;;;;;;11.63;5.45;;;;;;;9.27;100.00;99790.28;4952083;28;20049;-59
2021/12/31 05:43:13;;;;;;;10.27;5.53;;;;;;;9.26;100.00;99790.50;4959739;28;20481;-61
2021/12/31 05:45:39;;;;;;;12.50;5.50;;;;;;;9.24;100.00;99796.09;4955819;28;20034;-61
2021/12/31 05:48:05;;;;;;;10.40;5.20;;;;;;;9.25;100.00;99791.53;4952066;28;20846;-61
2021/12/31 05:50:32;;;;;;;12.15;5.20;;;;;;;9.32;100.00;99786.16;4954074;28;20043;-61
2021/12/31 05:52:58;;;;;;;16.58;6.15;;;;;;;9.39;100.00;99792.25;4948928;28;20564;-61
2021/12/31 05:55:23;;;;;;;15.10;5.90;;;;;;;9.37;100.00;99795.13;4948660;28;20055;-61
2021/12/31 05:57:49;;;;;;;13.18;5.30;;;;;;;9.40;100.00;99794.69;4957680;28;20030;-61
2021/12/31 06:00:15;;;;;;;14.85;5.22;;;;;;;9.40;100.00;99799.22;4945075;28;20173;-61
2021/12/31 06:02:40;;;;;;;23.38;6.10;;;;;;;9.44;100.00;99800.44;4951941;28;20645;-61
2021/12/31 06:05:06;;;;;;;16.70;5.13;;;;;;;9.48;100.00;99791.75;4956632;28;20031;-61
2021/12/31 06:07:32;;;;;;;19.17;5.38;;;;;;;9.49;100.00;99803.25;4951260;28;20609;-61
2021/12/31 06:09:57;;;;;;;9.40;4.75;;;;;;;9.48;100.00;99791.75;4950127;28;20390;-61
2021/12/31 06:12:23;;;;;;;10.52;4.80;;;;;;;9.56;100.00;99798.66;4953062;28;20039;-61
2021/12/31 06:14:50;;;;;;;12.73;4.60;;;;;;;9.50;100.00;99799.53;4951309;28;20028;-61
2021/12/31 06:17:21;;;;;;;13.02;4.65;;;;;;;9.61;100.00;99790.78;4952793;28;20548;-61
2021/12/31 06:19:47;;;;;;;14.15;4.97;;;;;;;9.50;100.00;99794.19;4947648;28;20046;-61
2021/12/31 06:22:12;;;;;;;11.05;4.68;;;;;;;9.54;100.00;99786.53;4947978;28;20102;-60
2021/12/31 06:24:37;;;;;;;12.32;4.93;;;;;;;9.57;100.00;99780.75;4931657;28;20035;-61
2021/12/31 06:27:03;;;;;;;10.88;5.05;;;;;;;9.53;100.00;99774.19;4952718;28;20047;-59
2021/12/31 06:29:28;;;;;;;10.27;4.50;;;;;;;9.59;100.00;99778.66;4953968;28;20094;-61
2021/12/31 06:31:54;;;;;;;11.18;4.60;;;;;;;9.45;100.00;99786.00;4954101;28;20041;-61
2021/12/31 06:34:19;;;;;;;12.93;4.85;;;;;;;9.52;100.00;99778.72;4948603;28;20039;-61
2021/12/31 06:36:45;;;;;;;10.40;4.32;;;;;;;9.52;100.00;99773.38;4953006;28;20090;-59
2021/12/31 06:39:10;;;;;;;10.68;4.22;;;;;;;9.47;100.00;99775.91;4953425;28;20078;-59
2021/12/31 06:41:35;;;;;;;10.77;4.25;;;;;;;9.42;100.00;99762.38;4949493;28;20043;-59
2021/12/31 06:44:01;;;;;;;15.55;4.80;;;;;;;9.33;100.00;99756.47;4959788;28;20419;-59
2021/12/31 06:46:26;;;;;;;11.57;4.65;;;;;;;9.29;100.00;99774.84;4954236;28;20039;-59
2021/12/31 06:48:52;;;;;;;9.38;4.78;;;;;;;9.35;100.00;99775.00;4950788;28;20019;-59
2021/12/31 06:51:17;;;;;;;10.48;4.07;;;;;;;9.31;100.00;99776.47;4953290;28;20043;-59
2021/12/31 06:53:42;;;;;;;9.90;4.13;;;;;;;9.28;100.00;99770.53;4948080;28;20035;-59
2021/12/31 06:56:08;;;;;;;15.20;5.00;;;;;;;9.28;100.00;99767.88;4944780;28;20046;-61
2021/12/31 06:58:33;;;;;;;7.97;4.30;;;;;;;9.29;100.00;99782.88;4957019;28;20038;-59
2021/12/31 07:00:59;;;;;;;9.45;4.20;;;;;;;9.30;100.00;99783.69;4951406;28;20032;-59
2021/12/31 07:03:24;;;;;;;10.00;4.55;;;;;;;9.26;100.00;99786.00;4946905;28;20023;-59
2021/12/31 07:05:49;;;;;;;15.05;4.53;;;;;;;9.28;100.00;99786.59;4950925;28;20051;-61
2021/12/31 07:08:15;;;;;;;7.05;3.90;;;;;;;9.37;100.00;99797.81;4950232;28;20975;-60
2021/12/31 07:10:40;;;;;;;7.90;4.35;;;;;;;9.24;100.00;99789.91;4953370;28;20043;-59
2021/12/31 07:13:10;;;;;;;10.10;4.32;;;;;;;9.36;100.00;99803.38;4949832;28;20038;-59
2021/12/31 07:15:40;;;;;;;9.38;4.20;;;;;;;9.43;100.00;99796.91;4948884;28;20090;-59
2021/12/31 07:18:06;;;;;;;7.65;3.97;;;;;;;9.42;100.00;99797.16;4954190;28;20049;-61
2021/12/31 07:20:31;;;;;;;8.50;4.00;;;;;;;9.40;100.00;99792.00;4948740;28;20043;-59
2021/12/31 07:22:56;;;;;;;10.40;4.32;;;;;;;9.40;100.00;99783.19;4956129;28;20019;-59
2021/12/31 07:25:22;;;;;;;10.85;4.13;;;;;;;9.44;100.00;99789.72;4953415;28;20047;-59
2021/12/31 07:27:50;;;;;;;13.82;4.55;;;;;;;9.34;100.00;99787.56;4954117;28;20029;-59
2021/12/31 07:30:17;;;;;;;10.48;4.47;;;;;;;9.37;100.00;99784.44;4953321;28;20035;-59
2021/12/31 07:32:43;;;;;;;12.18;4.57;;;;;;;9.34;100.00;99773.38;4950054;28;20488;-59
2021/12/31 07:35:08;;;;;;;9.52;4.53;;;;;;;9.31;100.00;99771.97;4947597;28;20039;-59
2021/12/31 07:37:33;;;;;;;13.88;4.30;;;;;;;9.34;100.00;99781.41;4954677;28;20030;-59
2021/12/31 07:40:03;;;;;;;11.43;4.43;;;;;;;9.32;100.00;99780.78;4947261;28;20440;-60
2021/12/31 07:42:29;;;;;;;15.60;4.78;;;;;;;9.33;100.00;99775.19;4939903;28;20059;-60
2021/12/31 07:44:54;;;;;;;10.95;4.35;;;;;;;9.32;100.00;99778.94;4947403;28;20487;-59
2021/12/31 07:47:19;;;;;;;10.40;4.30;;;;;;;9.27;100.00;99782.25;4943276;28;20052;-59
2021/12/31 07:49:45;;;;;;;9.80;4.63;;;;;;;9.20;100.00;99789.53;4949590;28;20058;-59
2021/12/31 07:52:10;;;;;;;13.80;4.25;;;;;;;9.21;100.00;99783.16;4947113;28;20043;-60
2021/12/31 07:54:36;;;;;;;9.30;4.32;;;;;;;9.25;100.00;99781.66;4945668;28;20516;-59
2021/12/31 07:57:01;;;;;;;9.43;4.20;;;;;;;9.17;100.00;99779.28;4956386;28;20427;-59
2021/12/31 07:59:26;;;;;;;8.00;4.47;;;;;;;9.22;100.00;99783.97;4949703;28;20031;-61
2021/12/31 08:01:52;;;;;;;9.07;4.10;;;;;;;9.22;100.00;99786.63;4957397;28;20043;-59
2021/12/31 08:04:17;;;;;;;7.50;3.92;;;;;;;9.34;100.00;99784.06;4955428;28;20070;-59
2021/12/31 08:06:43;;;;;;;6.35;3.63;;;;;;;9.31;100.00;99784.50;4955650;28;20047;-59
2021/12/31 08:09:08;;;;;;;8.32;3.65;;;;;;;9.40;100.00;99791.19;4953954;28;20505;-59
2021/12/31 08:11:33;;;;;;;8.05;3.65;;;;;;;9.43;99.23;99796.91;4953331;28;20050;-59
2021/12/31 08:13:59;;;;;;;12.68;3.50;;;;;;;9.41;99.29;99800.84;4953856;28;20458;-59
2021/12/31 08:16:24;;;;;;;11.85;3.65;;;;;;;9.37;99.38;99805.03;4953189;28;20062;-60
2021/12/31 08:18:50;;;;;;;7.50;3.47;;;;;;;9.41;99.24;99808.88;4952288;28;20027;-61
2021/12/31 08:21:15;;;;;;;6.30;3.42;;;;;;;9.37;99.69;99808.50;4956797;28;20142;-61
2021/12/31 08:23:40;;;;;;;7.90;3.80;;;;;;;9.46;99.05;99806.34;4954361;28;20037;-60
2021/12/31 08:26:07;;;;;;;8.23;3.65;;;;;;;9.50;98.78;99816.41;4953511;28;20561;-59
2021/12/31 08:28:33;;;;;;;8.23;3.20;;;;;;;9.56;98.45;99809.38;4953008;28;20098;-60
2021/12/31 08:30:58;;;;;;;6.07;3.50;;;;;;;9.55;98.83;99801.56;4953047;28;20043;-61
2021/12/31 08:33:25;;;;;;;9.45;3.60;;;;;;;9.63;98.71;99794.03;4954782;28;20024;-61
2021/12/31 08:35:51;;;;;;;7.32;3.78;;;;;;;9.72;98.05;99798.06;4946488;28;20051;-61
2021/12/31 08:38:16;;;;;;;6.68;3.42;;;;;;;9.81;97.46;99795.09;4955098;28;20303;-61
2021/12/31 08:40:41;;;;;;;8.30;3.42;;;;;;;9.92;97.37;99799.69;4958894;28;20580;-61
2021/12/31 08:43:07;;;;;;;7.15;3.42;;;;;;;9.94;96.79;99808.34;4957328;28;20405;-59
2021/12/31 08:45:35;;;;;;;9.82;3.42;;;;;;;10.03;96.39;99804.28;4957065;28;20126;-59
2021/12/31 08:48:00;;;;;;;11.52;3.45;;;;;;;10.17;96.20;99804.16;4959982;28;20043;-59
2021/12/31 08:50:26;;;;;;;7.38;3.15;;;;;;;10.26;95.80;99813.50;4958380;28;20070;-59
2021/12/31 08:52:51;;;;;;;14.02;3.45;;;;;;;10.37;94.69;99804.72;4954289;28;20059;-59
2021/12/31 08:55:17;;;;;;;6.60;3.38;;;;;;;10.46;95.10;99810.56;4952988;28;20058;-61
2021/12/31 08:57:43;;;;;;;10.90;3.58;;;;;;;10.53;94.19;99808.63;4962601;28;20065;-60
2021/12/31 09:00:09;;;;;;;7.70;3.47;;;;;;;10.77;93.77;99798.78;4957558;28;20030;-61
2021/12/31 09:02:42;;;;;;;7.22;3.40;;;;;;;11.09;91.99;99803.88;4958709;28;20390;-61
2021/12/31 09:05:09;;;;;;;6.68;2.90;;;;;;;11.70;89.17;99791.81;4953541;28;20030;-60
2021/12/31 09:07:35;;;;;;;7.00;3.03;;;;;;;11.33;89.58;99789.44;4957082;28;20114;-59
2021/12/31 09:10:00;;;;;;;7.30;3.28;;;;;;;10.99;91.63;99799.88;4954132;28;20461;-60
2021/12/31 09:12:27;;;;;;;8.18;3.25;;;;;;;11.24;90.88;99796.19;4955017;28;20070;-60
2021/12/31 09:14:52;;;;;;;8.90;3.40;;;;;;;10.92;92.01;99791.13;4957594;28;20661;-60
2021/12/31 09:17:17;;;;;;;9.63;3.00;;;;;;;11.08;91.71;99792.31;4956151;28;20046;-60
2021/12/31 09:19:43;;;;;;;9.43;4.05;;;;;;;11.38;90.57;99805.66;4960768;28;20043;-62
2021/12/31 09:22:09;;;;;;;11.50;3.63;;;;;;;11.17;91.21;99803.53;4958363;28;20244;-59
2021/12/31 09:24:35;;;;;;;10.90;3.95;;;;;;;10.98;92.14;99817.03;4955405;28;20035;-59
2021/12/31 09:27:00;;;;;;;5.90;3.83;;;;;;;10.95;92.40;99814.00;4956851;28;20154;-61
2021/12/31 09:29:25;;;;;;;9.93;3.83;;;;;;;10.75;92.92;99812.41;4952341;28;20044;-61
2021/12/31 09:31:51;;;;;;;8.02;3.25;;;;;;;10.89;92.80;99806.88;4958528;28;20122;-61
2021/12/31 09:34:16;;;;;;;11.10;3.63;;;;;;;10.96;92.35;99803.03;4954943;28;20367;-62
2021/12/31 09:36:42;;;;;;;8.95;3.38;;;;;;;10.89;92.41;99806.88;4951047;28;20049;-61
2021/12/31 09:39:07;;;;;;;6.70;3.35;;;;;;;10.84;92.87;99814.78;4949652;28;20028;-60
2021/12/31 09:41:33;;;;;;;8.43;3.58;;;;;;;10.98;91.85;99830.47;4953262;28;20065;-61
2021/12/31 09:43:58;;;;;;;6.35;3.25;;;;;;;10.84;91.83;99834.38;4964026;28;20027;-60
2021/12/31 09:46:24;;;;;;;9.27;3.50;;;;;;;10.82;92.22;99816.88;4964738;28;20098;-60
2021/12/31 09:48:50;;;;;;;5.38;3.47;;;;;;;10.85;91.82;99822.59;4932491;28;20452;-60
2021/12/31 09:51:15;;;;;;;8.00;3.45;;;;;;;10.91;92.07;99820.88;4970607;28;20169;-60
2021/12/31 09:53:42;;;;;;;9.45;3.20;;;;;;;10.92;91.67;99815.25;4936737;28;20413;-60
2021/12/31 09:56:08;;;;;;;7.35;3.13;;;;;;;11.00;91.32;99840.94;4933199;28;20043;-60
2021/12/31 09:58:35;;;;;;;9.23;3.80;;;;;;;11.24;90.83;99844.47;4964445;28;20865;-60
2021/12/31 10:01:01;;;;;;;7.63;3.25;;;;;;;11.28;89.13;99842.94;4958297;28;20083;-60
2021/12/31 10:03:29;;;;;;;5.45;3.20;;;;;;;11.11;89.44;99856.25;4953614;28;20134;-60
2021/12/31 10:05:59;;;;;;;9.55;3.33;;;;;;;11.10;89.55;99856.47;4956788;28;20068;-60
2021/12/31 10:08:26;;;;;;;6.97;3.30;;;;;;;11.08;90.41;99845.97;4951538;28;20121;-61
2021/12/31 10:11:25;;;;;;;7.03;3.20;;;;;;;10.97;91.84;99844.91;4952698;28;20323;-60
2021/12/31 10:14:01;;;;;;;6.53;3.47;;;;;;;11.01;91.98;99837.22;4957009;28;20038;-60
2021/12/31 10:16:27;;;;;;;10.32;3.40;;;;;;;10.96;92.08;99835.22;4948587;28;20078;-60
2021/12/31 10:19:15;;;;;;;6.93;3.55;;;;;;;10.91;92.93;99821.69;4956029;28;20450;-60
2021/12/31 10:21:46;;;;;;;6.38;3.45;;;;;;;10.89;93.00;99829.13;4958029;28;20057;-60
2021/12/31 10:24:22;;;;;;;5.88;3.42;;;;;;;10.86;93.00;99824.25;4954621;28;20031;-60
2021/12/31 10:26:48;;;;;;;10.55;4.40;;;;;;;10.97;92.13;99819.94;4945607;28;20636;-60
2021/12/31 10:29:14;;;;;;;9.98;3.47;;;;;;;10.95;92.00;99814.78;4951960;28;20824;-60
2021/12/31 10:31:47;;;;;;;12.05;3.33;;;;;;;10.91;92.26;99810.16;4955129;28;20039;-60
2021/12/31 10:34:36;;;;;;;5.38;3.35;;;;;;;10.93;92.00;99824.97;4952216;28;20098;-60
2021/12/31 10:37:17;;;;;;;6.43;3.30;;;;;;;10.97;91.76;99810.03;4950723;28;20043;-60
2021/12/31 10:39:44;;;;;;;7.68;3.88;;;;;;;10.81;92.64;99810.72;4949663;28;20030;-60
2021/12/31 10:42:13;;;;;;;6.82;3.60;;;;;;;10.96;92.43;99800.34;4945470;28;20806;-60
2021/12/31 10:44:46;;;;;;;9.27;4.10;;;;;;;10.81;92.80;99799.97;4949486;28;20046;-60
2021/12/31 10:47:28;;;;;;;7.90;3.85;;;;;;;10.79;92.72;99812.78;4950706;28;20502;-60
2021/12/31 10:49:59;;;;;;;7.65;4.10;;;;;;;10.88;92.87;99816.75;4941796;28;20125;-61
2021/12/31 10:52:28;;;;;;;8.20;4.20;;;;;;;10.73;92.85;99801.13;4948157;28;20154;-61
2021/12/31 10:55:16;;;;;;;5.60;3.65;;;;;;;10.79;93.03;99791.34;4946728;28;20489;-61
2021/12/31 10:57:41;;;;;;;13.50;4.57;;;;;;;10.68;93.00;99768.81;4950454;28;20034;-60
2021/12/31 11:00:08;;;;;;;8.57;4.03;;;;;;;10.62;92.37;99755.53;4947641;28;20027;-60
2021/12/31 11:02:34;;;;;;;8.98;4.20;;;;;;;10.69;91.81;99754.38;4948390;28;20117;-61
2021/12/31 11:04:59;;;;;;;6.10;3.53;;;;;;;10.63;91.78;99749.91;4955710;28;20046;-60
2021/12/31 11:07:26;;;;;;;7.63;3.90;;;;;;;10.65;91.64;99757.75;4945176;28;20247;-60
2021/12/31 11:09:52;;;;;;;7.80;3.72;;;;;;;10.65;92.45;99768.47;4951486;28;20030;-60
2021/12/31 11:12:17;;;;;;;7.10;3.40;;;;;;;10.74;92.35;99783.19;4948723;28;20520;-60
2021/12/31 11:14:43;;;;;;;14.43;4.13;;;;;;;11.04;91.25;99777.75;4952172;28;20031;-60
2021/12/31 11:17:08;;;;;;;9.93;3.53;;;;;;;11.09;91.42;99785.09;4952842;28;20039;-60
2021/12/31 11:19:35;;;;;;;6.68;3.50;;;;;;;10.94;91.72;99781.00;4952676;28;20058;-59
2021/12/31 11:22:00;;;;;;;6.13;3.38;;;;;;;11.15;91.06;99798.38;4931345;28;20047;-59
2021/12/31 11:24:28;;;;;;;10.63;3.78;;;;;;;11.17;90.79;99792.78;4948498;28;20488;-60
2021/12/31 11:26:54;;;;;;;5.70;3.38;;;;;;;11.20;90.42;99795.00;4951822;28;20050;-59